createdAt,value
2023-05-19T00:01:44.028Z,2.25
2023-05-19T00:04:12.443Z,1.67
2023-05-19T00:06:39.439Z,2.13
2023-05-19T00:09:07.820Z,2.00
2023-05-19T00:11:36.338Z,1.92
2023-05-19T00:14:05.064Z,1.77
2023-05-19T00:16:32.349Z,2.25
2023-05-19T00:19:00.204Z,1.52
2023-05-19T00:21:27.745Z,2.17
2023-05-19T00:23:54.962Z,2.05
2023-05-19T00:26:22.776Z,1.95
2023-05-19T00:28:50.630Z,1.95
2023-05-19T00:31:17.201Z,1.83
2023-05-19T00:33:43.716Z,2.38
2023-05-19T00:36:10.202Z,2.15
2023-05-19T00:38:37.535Z,2.13
2023-05-19T00:41:05.343Z,2.00
2023-05-19T00:43:34.356Z,1.83
2023-05-19T00:46:00.905Z,2.13
2023-05-19T00:48:27.450Z,1.92
2023-05-19T00:50:56.271Z,2.08
2023-05-19T00:53:23.345Z,1.60
2023-05-19T00:55:50.453Z,2.15
2023-05-19T00:58:17.177Z,1.98
2023-05-19T01:00:46.852Z,2.15
2023-05-19T01:03:13.558Z,2.25
2023-05-19T01:05:46.188Z,2.03
2023-05-19T01:08:12.724Z,2.33
2023-05-19T01:10:39.470Z,1.77
2023-05-19T01:13:07.362Z,1.88
2023-05-19T01:15:40.310Z,1.70
2023-05-19T01:18:16.824Z,2.10
2023-05-19T01:20:52.507Z,2.10
2023-05-19T01:23:36.885Z,2.00
2023-05-19T01:26:39.022Z,2.08
2023-05-19T01:29:24.055Z,2.08
2023-05-19T01:31:51.857Z,2.30
2023-05-19T01:34:20.645Z,2.10
2023-05-19T01:36:49.800Z,1.80
2023-05-19T01:39:16.979Z,1.83
2023-05-19T01:41:45.511Z,1.95
2023-05-19T01:44:12.201Z,1.73
2023-05-19T01:46:39.081Z,2.30
2023-05-19T01:49:06.666Z,2.03
2023-05-19T01:51:33.210Z,2.13
2023-05-19T01:53:59.708Z,1.88
2023-05-19T01:56:50.026Z,2.17
2023-05-19T01:59:37.088Z,1.95
2023-05-19T02:02:13.838Z,2.17
2023-05-19T02:04:51.063Z,1.85
2023-05-19T02:07:30.951Z,2.08
2023-05-19T02:10:22.727Z,2.40
2023-05-19T02:12:54.144Z,2.08
2023-05-19T02:15:25.966Z,1.95
2023-05-19T02:17:55.448Z,2.65
2023-05-19T02:20:24.512Z,1.67
2023-05-19T02:22:50.998Z,1.73
2023-05-19T02:25:17.630Z,2.10
2023-05-19T02:27:44.173Z,2.38
2023-05-19T02:30:10.900Z,2.00
2023-05-19T02:32:37.665Z,2.10
2023-05-19T02:35:04.892Z,1.90
2023-05-19T02:37:32.573Z,2.03
2023-05-19T02:39:59.249Z,1.83
2023-05-19T02:42:25.944Z,2.25
2023-05-19T02:44:54.242Z,5.60
2023-05-19T02:47:20.986Z,1.92
2023-05-19T02:49:47.672Z,2.47
2023-05-19T02:52:14.158Z,1.73
2023-05-19T02:54:40.843Z,2.03
2023-05-19T02:57:07.376Z,2.05
2023-05-19T02:59:33.989Z,1.80
2023-05-19T03:02:02.223Z,2.30
2023-05-19T03:04:29.799Z,2.25
2023-05-19T03:06:57.668Z,2.17
2023-05-19T03:09:24.253Z,2.45
2023-05-19T03:11:50.788Z,2.08
2023-05-19T03:14:18.789Z,2.45
2023-05-19T03:16:45.759Z,2.70
2023-05-19T03:19:12.688Z,2.50
2023-05-19T03:21:39.350Z,1.92
2023-05-19T03:24:06.755Z,1.85
2023-05-19T03:26:33.325Z,2.40
2023-05-19T03:28:59.734Z,2.45
2023-05-19T03:31:26.809Z,2.20
2023-05-19T03:33:53.426Z,2.53
2023-05-19T03:36:19.969Z,2.55
2023-05-19T03:38:46.528Z,2.25
2023-05-19T03:41:12.974Z,2.25
2023-05-19T03:43:41.934Z,1.80
2023-05-19T03:46:08.603Z,2.38
2023-05-19T03:48:35.132Z,2.25
2023-05-19T03:51:01.599Z,2.33
2023-05-19T03:53:30.301Z,2.35
2023-05-19T03:55:57.221Z,2.20
2023-05-19T03:58:24.071Z,2.17
2023-05-19T04:00:51.071Z,2.40
2023-05-19T04:03:17.550Z,2.53
2023-05-19T04:05:44.264Z,2.38
2023-05-19T04:08:10.806Z,2.28
2023-05-19T04:10:37.469Z,3.00
2023-05-19T04:13:03.895Z,2.33
2023-05-19T04:15:30.410Z,2.80
2023-05-19T04:17:57.231Z,2.33
2023-05-19T04:20:23.796Z,2.08
2023-05-19T04:22:50.276Z,2.50
2023-05-19T04:25:16.853Z,2.65
2023-05-19T04:27:43.494Z,2.55
2023-05-19T04:30:10.372Z,2.30
2023-05-19T04:32:37.869Z,2.58
2023-05-19T04:35:04.789Z,2.33
2023-05-19T04:37:31.519Z,2.38
2023-05-19T04:39:58.100Z,2.40
2023-05-19T04:42:26.065Z,2.15
2023-05-19T04:44:52.494Z,2.85
2023-05-19T04:47:21.543Z,2.72
2023-05-19T04:52:14.555Z,2.10
2023-05-19T04:54:41.842Z,2.33
2023-05-19T04:57:10.451Z,2.58
2023-05-19T04:59:36.942Z,2.55
2023-05-19T05:02:04.360Z,3.00
2023-05-19T05:04:30.925Z,2.60
2023-05-19T05:06:57.392Z,3.22
2023-05-19T05:09:23.938Z,3.03
2023-05-19T05:11:51.493Z,2.92
2023-05-19T05:14:18.199Z,2.75
2023-05-19T05:16:45.226Z,2.92
2023-05-19T05:19:12.186Z,3.45
2023-05-19T05:21:38.941Z,3.00
2023-05-19T05:24:05.864Z,3.25
2023-05-19T05:26:34.424Z,3.13
2023-05-19T05:29:01.323Z,3.20
2023-05-19T05:31:27.760Z,3.47
2023-05-19T05:33:54.564Z,3.67
2023-05-19T05:36:21.156Z,3.35
2023-05-19T05:38:47.662Z,3.17
2023-05-19T05:41:14.153Z,3.25
2023-05-19T05:43:40.760Z,3.58
2023-05-19T05:46:07.382Z,3.15
2023-05-19T05:48:34.512Z,3.53
2023-05-19T05:51:01.198Z,2.50
2023-05-19T05:53:30.852Z,3.45
2023-05-19T05:55:57.696Z,4.00
2023-05-19T05:58:24.266Z,3.72
2023-05-19T06:00:51.534Z,3.28
2023-05-19T06:03:18.654Z,3.33
2023-05-19T06:05:45.320Z,3.47
2023-05-19T06:08:11.852Z,3.20
2023-05-19T06:10:41.604Z,2.92
2023-05-19T06:13:08.064Z,3.17
2023-05-19T06:15:34.579Z,3.90
2023-05-19T06:18:01.272Z,3.72
2023-05-19T06:20:28.030Z,3.80
2023-05-19T06:22:54.585Z,3.63
2023-05-19T06:25:21.195Z,3.90
2023-05-19T06:27:47.795Z,2.85
2023-05-19T06:30:14.500Z,3.72
2023-05-19T06:32:41.136Z,3.42
2023-05-19T06:35:08.041Z,3.40
2023-05-19T06:37:34.581Z,3.92
2023-05-19T06:40:01.026Z,3.65
2023-05-19T06:42:27.532Z,4.30
2023-05-19T06:44:54.064Z,3.88
2023-05-19T06:47:20.645Z,3.60
2023-05-19T06:49:50.797Z,3.17
2023-05-19T06:52:17.740Z,3.53
2023-05-19T06:54:44.273Z,3.88
2023-05-19T06:57:10.771Z,3.38
2023-05-19T06:59:37.645Z,3.63
2023-05-19T07:02:04.759Z,3.75
2023-05-19T07:04:31.356Z,3.80
2023-05-19T07:06:57.893Z,3.72
2023-05-19T07:09:24.365Z,3.10
2023-05-19T07:11:50.882Z,3.40
2023-05-19T07:14:17.295Z,3.20
2023-05-19T07:16:43.935Z,3.13
2023-05-19T07:19:10.518Z,3.38
2023-05-19T07:21:37.030Z,3.30
2023-05-19T07:24:03.746Z,3.30
2023-05-19T07:26:30.307Z,3.58
2023-05-19T07:28:57.829Z,3.05
2023-05-19T07:31:24.383Z,2.80
2023-05-19T07:33:52.977Z,3.10
2023-05-19T07:36:21.096Z,2.88
2023-05-19T07:38:47.749Z,2.80
2023-05-19T07:41:14.590Z,2.65
2023-05-19T07:43:41.172Z,2.83
2023-05-19T07:46:07.629Z,2.50
2023-05-19T07:48:34.218Z,2.80
2023-05-19T07:51:00.734Z,2.38
2023-05-19T07:53:27.948Z,2.38
2023-05-19T07:55:55.465Z,2.10
2023-05-19T07:58:22.919Z,2.10
2023-05-19T08:00:49.384Z,1.90
2023-05-19T08:03:18.407Z,2.17
2023-05-19T08:05:45.752Z,2.28
2023-05-19T08:08:12.799Z,2.20
2023-05-19T08:10:39.510Z,1.80
2023-05-19T08:13:06.133Z,1.77
2023-05-19T08:15:32.629Z,1.88
2023-05-19T08:17:59.306Z,1.55
2023-05-19T08:20:25.772Z,1.73
2023-05-19T08:22:52.426Z,1.48
2023-05-19T08:25:19.745Z,1.40
2023-05-19T08:27:46.412Z,1.33
2023-05-19T08:30:13.429Z,1.50
2023-05-19T08:32:40.035Z,1.40
2023-05-19T08:35:10.490Z,1.75
2023-05-19T08:37:38.266Z,1.38
2023-05-19T08:40:05.868Z,1.45
2023-05-19T08:42:35.806Z,1.42
2023-05-19T08:45:02.742Z,1.40
2023-05-19T08:47:29.627Z,1.50
2023-05-19T08:50:05.263Z,1.23
2023-05-19T08:52:54.061Z,1.50
2023-05-19T08:56:01.759Z,1.00
2023-05-19T08:58:30.900Z,1.33
2023-05-19T09:00:57.962Z,1.20
2023-05-19T09:03:26.497Z,1.05
2023-05-19T09:08:22.796Z,1.70
2023-05-19T09:10:49.413Z,1.40
2023-05-19T09:13:15.961Z,1.80
2023-05-19T09:15:44.415Z,1.65
2023-05-19T09:18:12.889Z,1.75
2023-05-19T09:20:41.466Z,1.30
2023-05-19T09:25:36.835Z,1.63
2023-05-19T09:28:03.522Z,1.35
2023-05-19T09:30:30.058Z,1.70
2023-05-19T09:32:56.703Z,1.40
2023-05-19T09:35:23.774Z,2.00
2023-05-19T09:37:50.298Z,1.38
2023-05-19T09:40:17.069Z,1.60
2023-05-19T09:42:44.344Z,1.60
2023-05-19T09:45:11.498Z,1.80
2023-05-19T09:47:39.763Z,1.73
2023-05-19T09:50:08.605Z,1.85
2023-05-19T09:52:39.009Z,1.70
2023-05-19T09:55:09.265Z,1.83
2023-05-19T09:57:37.265Z,1.65
2023-05-19T10:00:20.815Z,1.58
2023-05-19T10:02:48.480Z,1.58
2023-05-19T10:05:17.850Z,1.58
2023-05-19T10:07:45.733Z,1.80
2023-05-19T10:10:13.993Z,1.42
2023-05-19T10:12:41.205Z,1.77
2023-05-19T10:15:12.446Z,1.48
2023-05-19T10:17:40.682Z,1.60
2023-05-19T10:20:12.789Z,1.60
2023-05-19T10:22:39.787Z,1.60
2023-05-19T10:25:07.483Z,1.60
2023-05-19T10:27:36.848Z,1.50
2023-05-19T10:30:13.711Z,1.42
2023-05-19T10:32:44.205Z,1.85
2023-05-19T10:35:16.701Z,1.45
2023-05-19T10:38:20.643Z,1.50
2023-05-19T10:41:08.979Z,1.67
2023-05-19T10:44:06.489Z,1.77
2023-05-19T10:46:33.240Z,1.40
2023-05-19T10:48:59.996Z,1.73
2023-05-19T10:51:33.163Z,1.63
2023-05-19T10:54:03.004Z,1.75
2023-05-19T10:56:32.880Z,1.52
2023-05-19T10:59:00.063Z,1.65
2023-05-19T11:01:32.024Z,1.75
2023-05-19T11:04:05.158Z,1.58
2023-05-19T11:06:38.750Z,1.83
2023-05-19T11:09:19.452Z,1.80
2023-05-19T11:11:54.296Z,1.83
2023-05-19T11:14:23.118Z,1.70
2023-05-19T11:16:52.101Z,1.80
2023-05-19T11:19:28.501Z,1.80
2023-05-19T11:21:55.814Z,1.40
2023-05-19T11:24:45.829Z,1.35
2023-05-19T11:27:24.646Z,1.48
2023-05-19T11:29:54.088Z,1.58
2023-05-19T11:32:22.628Z,1.38
2023-05-19T11:37:16.700Z,1.80
2023-05-19T11:39:45.379Z,1.60
2023-05-19T11:42:11.878Z,1.58
2023-05-19T11:44:38.560Z,1.60
2023-05-19T11:47:05.811Z,1.52
2023-05-19T11:49:32.825Z,1.50
2023-05-19T11:52:03.272Z,1.73
2023-05-19T11:54:32.271Z,1.38
2023-05-19T11:57:03.107Z,1.35
2023-05-19T11:59:35.763Z,1.23
2023-05-19T12:02:16.784Z,1.55
2023-05-19T12:04:43.603Z,1.27
2023-05-19T12:07:14.618Z,1.33
2023-05-19T12:09:41.159Z,1.40
2023-05-19T12:12:07.950Z,1.20
2023-05-19T12:14:35.798Z,1.42
2023-05-19T12:17:17.008Z,1.30
2023-05-19T12:19:45.118Z,1.60
2023-05-19T12:22:12.450Z,1.20
2023-05-19T12:24:39.467Z,1.50
2023-05-19T12:27:12.451Z,1.20
2023-05-19T12:29:41.662Z,1.30
2023-05-19T12:32:09.245Z,1.30
2023-05-19T12:34:39.493Z,1.50
2023-05-19T12:37:12.618Z,1.60
2023-05-19T12:39:39.886Z,2.20
2023-05-19T12:42:10.830Z,2.40
2023-05-19T12:44:39.231Z,2.13
2023-05-19T12:47:07.090Z,2.47
2023-05-19T12:49:34.095Z,2.53
2023-05-19T12:52:07.096Z,2.22
2023-05-19T12:54:37.071Z,1.98
2023-05-19T12:57:06.050Z,2.00
2023-05-19T12:59:38.927Z,1.80
2023-05-19T13:02:06.396Z,1.90
2023-05-19T13:04:33.128Z,2.17
2023-05-19T13:06:59.630Z,1.77
2023-05-19T13:09:26.777Z,1.80
2023-05-19T13:11:54.697Z,1.73
2023-05-19T13:14:21.617Z,2.10
2023-05-19T13:16:48.156Z,1.52
2023-05-19T13:19:25.112Z,2.20
2023-05-19T13:21:52.417Z,1.65
2023-05-19T13:24:18.961Z,1.90
2023-05-19T13:26:45.646Z,1.70
2023-05-19T13:29:12.230Z,1.88
2023-05-19T13:31:38.798Z,1.73
2023-05-19T13:34:05.434Z,1.73
2023-05-19T13:36:33.321Z,1.80
2023-05-19T13:39:00.822Z,2.00
2023-05-19T13:41:29.233Z,1.70
2023-05-19T13:44:01.797Z,2.20
2023-05-19T13:46:40.623Z,2.13
2023-05-19T13:49:11.699Z,1.88
2023-05-19T13:51:38.362Z,2.10
2023-05-19T13:54:05.032Z,1.90
2023-05-19T13:56:31.754Z,1.95
2023-05-19T13:58:58.330Z,1.85
2023-05-19T14:01:24.969Z,1.90
2023-05-19T14:03:51.674Z,1.70
2023-05-19T14:06:18.300Z,1.73
2023-05-19T14:08:45.537Z,2.20
2023-05-19T14:11:19.836Z,1.52
2023-05-19T14:16:18.774Z,1.55
2023-05-19T14:18:45.482Z,1.98
2023-05-19T14:21:12.158Z,1.48
2023-05-19T14:23:38.763Z,1.88
2023-05-19T14:26:05.455Z,1.42
2023-05-19T14:28:31.980Z,1.45
2023-05-19T14:30:58.634Z,1.70
2023-05-19T14:33:25.077Z,1.40
2023-05-19T14:35:52.764Z,1.42
2023-05-19T14:38:19.337Z,1.20
2023-05-19T14:40:45.840Z,1.63
2023-05-19T14:43:12.313Z,1.58
2023-05-19T14:45:38.946Z,1.42
2023-05-19T14:48:05.732Z,1.40
2023-05-19T14:50:32.423Z,1.63
2023-05-19T14:52:59.134Z,1.40
2023-05-19T14:55:25.677Z,1.52
2023-05-19T14:57:52.134Z,1.60
2023-05-19T15:00:21.684Z,1.40
2023-05-19T15:02:49.514Z,1.77
2023-05-19T15:05:16.277Z,1.80
2023-05-19T15:07:42.816Z,1.35
2023-05-19T15:10:09.947Z,1.73
2023-05-19T15:12:36.949Z,1.88
2023-05-19T15:15:03.960Z,1.65
2023-05-19T15:17:32.735Z,1.25
2023-05-19T15:19:59.210Z,1.35
2023-05-19T15:22:26.295Z,1.60
2023-05-19T15:24:52.780Z,1.60
2023-05-19T15:27:20.752Z,1.30
2023-05-19T15:29:47.219Z,1.33
2023-05-19T15:32:13.758Z,1.30
2023-05-19T15:34:40.667Z,1.30
2023-05-19T15:37:09.433Z,1.40
2023-05-19T15:39:36.188Z,1.20
2023-05-19T15:42:02.753Z,1.50
2023-05-19T15:44:29.981Z,1.35
2023-05-19T15:46:56.472Z,1.63
2023-05-19T15:49:25.012Z,1.98
2023-05-19T15:51:51.862Z,1.63
2023-05-19T15:54:18.715Z,1.35
2023-05-19T15:56:45.408Z,1.38
2023-05-19T15:59:11.882Z,1.40
2023-05-19T16:01:38.507Z,1.40
2023-05-19T16:04:05.147Z,1.40
2023-05-19T16:06:32.039Z,1.00
2023-05-19T16:08:58.482Z,1.50
2023-05-19T16:11:24.966Z,1.50
2023-05-19T16:13:51.664Z,1.98
2023-05-19T16:16:18.829Z,1.73
2023-05-19T16:18:45.651Z,1.30
2023-05-19T16:21:12.207Z,1.60
2023-05-19T16:23:38.734Z,1.65
2023-05-19T16:26:05.180Z,1.60
2023-05-19T16:28:32.388Z,1.48
2023-05-19T16:30:59.867Z,1.80
2023-05-19T16:33:27.249Z,1.60
2023-05-19T16:35:53.803Z,1.75
2023-05-19T16:38:20.434Z,1.90
2023-05-19T16:40:46.985Z,2.10
2023-05-19T16:43:13.458Z,1.38
2023-05-19T16:45:39.950Z,1.70
2023-05-19T16:48:06.517Z,1.58
2023-05-19T16:50:33.150Z,1.85
2023-05-19T16:52:59.672Z,1.90
2023-05-19T16:55:26.815Z,1.77
2023-05-19T16:57:53.296Z,1.67
2023-05-19T17:00:19.923Z,1.73
2023-05-19T17:02:46.523Z,1.52
2023-05-19T17:05:13.168Z,1.75
2023-05-19T17:07:39.916Z,1.95
2023-05-19T17:10:06.894Z,1.67
2023-05-19T17:12:33.402Z,1.80
2023-05-19T17:15:00.186Z,2.00
2023-05-19T17:17:26.743Z,1.67
2023-05-19T17:19:53.414Z,1.73
2023-05-19T17:22:20.155Z,2.10
2023-05-19T17:24:47.228Z,1.65
2023-05-19T17:27:14.985Z,1.60
2023-05-19T17:29:41.511Z,1.50
2023-05-19T17:32:08.078Z,1.83
2023-05-19T17:34:34.693Z,1.80
2023-05-19T17:37:01.503Z,1.90
2023-05-19T17:39:28.031Z,1.77
2023-05-19T17:41:54.603Z,2.00
2023-05-19T17:44:21.319Z,1.80
2023-05-19T17:46:50.290Z,2.65
2023-05-19T17:49:16.870Z,2.20
2023-05-19T17:51:46.039Z,1.92
2023-05-19T17:54:12.952Z,1.75
2023-05-19T17:56:42.320Z,2.13
2023-05-19T17:59:09.173Z,2.60
2023-05-19T18:01:36.108Z,1.63
2023-05-19T18:04:03.681Z,2.83
2023-05-19T18:06:31.727Z,1.70
2023-05-19T18:09:00.780Z,1.70
2023-05-19T18:11:27.581Z,1.80
2023-05-19T18:13:54.119Z,1.80
2023-05-19T18:16:20.705Z,1.30
2023-05-19T18:18:50.391Z,1.55
2023-05-19T18:21:18.154Z,1.50
2023-05-19T18:23:45.729Z,1.30
2023-05-19T18:26:13.083Z,2.00
2023-05-19T18:28:40.492Z,1.52
2023-05-19T18:31:08.908Z,1.52
2023-05-19T18:33:35.434Z,1.75
2023-05-19T18:36:02.064Z,1.45
2023-05-19T18:38:28.605Z,1.65
2023-05-19T18:40:56.605Z,1.65
2023-05-19T18:43:23.119Z,1.15
2023-05-19T18:45:49.802Z,2.00
2023-05-19T18:48:16.404Z,2.00
2023-05-19T18:50:44.576Z,2.40
2023-05-19T18:53:11.800Z,3.00
2023-05-19T18:55:38.627Z,2.47
2023-05-19T18:58:06.155Z,2.15
2023-05-19T19:00:33.285Z,1.95
2023-05-19T19:03:00.114Z,2.42
2023-05-19T19:05:26.648Z,2.30
2023-05-19T19:07:53.395Z,2.30
2023-05-19T19:10:20.206Z,2.17
2023-05-19T19:12:46.720Z,2.40
2023-05-19T19:15:14.106Z,2.38
2023-05-19T19:17:41.073Z,2.17
2023-05-19T19:20:08.707Z,2.00
2023-05-19T19:22:35.383Z,2.45
2023-05-19T19:25:01.906Z,2.33
2023-05-19T19:27:31.260Z,2.20
2023-05-19T19:30:00.344Z,1.73
2023-05-19T19:32:27.102Z,2.17
2023-05-19T19:34:53.644Z,2.35
2023-05-19T19:37:20.208Z,1.63
2023-05-19T19:39:46.852Z,1.88
2023-05-19T19:42:13.512Z,1.60
2023-05-19T19:44:40.325Z,2.40
2023-05-19T19:47:07.076Z,1.80
2023-05-19T19:49:33.886Z,2.33
2023-05-19T19:52:00.397Z,1.92
2023-05-19T19:54:26.906Z,1.65
2023-05-19T19:56:53.583Z,1.55
2023-05-19T19:59:20.351Z,1.48
2023-05-19T20:01:46.971Z,1.65
2023-05-19T20:04:16.531Z,1.80
2023-05-19T20:06:43.238Z,1.70
2023-05-19T20:09:09.805Z,1.67
2023-05-19T20:11:36.321Z,1.50
2023-05-19T20:14:02.782Z,1.75
2023-05-19T20:16:29.476Z,2.60
2023-05-19T20:18:56.177Z,1.95
2023-05-19T20:21:22.775Z,1.73
2023-05-19T20:23:50.938Z,1.92
2023-05-19T20:26:17.521Z,1.73
2023-05-19T20:28:44.180Z,1.80
2023-05-19T20:31:10.963Z,2.38
2023-05-19T20:33:39.927Z,2.65
2023-05-19T20:36:07.426Z,3.03
2023-05-19T20:38:33.851Z,2.75
2023-05-19T20:41:01.911Z,2.35
2023-05-19T20:43:28.351Z,2.47
2023-05-19T20:45:54.949Z,2.47
2023-05-19T20:48:21.634Z,2.40
2023-05-19T20:50:51.245Z,2.88
2023-05-19T20:53:19.518Z,2.70
2023-05-19T20:55:46.261Z,2.65
2023-05-19T20:58:12.792Z,2.75
2023-05-19T21:00:42.316Z,2.42
2023-05-19T21:03:08.994Z,2.40
2023-05-19T21:05:36.371Z,2.28
2023-05-19T21:08:03.206Z,2.75
2023-05-19T21:10:29.751Z,2.45
2023-05-19T21:12:58.839Z,2.35
2023-05-19T21:15:26.906Z,2.97
2023-05-19T21:17:55.923Z,2.55
2023-05-19T21:20:22.591Z,2.80
2023-05-19T21:22:51.352Z,3.17
2023-05-19T21:25:18.087Z,2.85
2023-05-19T21:27:46.212Z,3.15
2023-05-19T21:30:15.547Z,2.78
2023-05-19T21:32:42.473Z,3.00
2023-05-19T21:35:09.340Z,3.05
2023-05-19T21:37:36.314Z,2.90
2023-05-19T21:40:03.014Z,3.05
2023-05-19T21:42:29.584Z,2.80
2023-05-19T21:44:56.113Z,3.08
2023-05-19T21:47:22.671Z,2.42
2023-05-19T21:49:49.178Z,3.13
2023-05-19T21:52:16.049Z,2.90
2023-05-19T21:54:42.621Z,2.70
2023-05-19T21:57:11.066Z,2.97
2023-05-19T21:59:40.580Z,2.70
2023-05-19T22:02:07.151Z,2.70
2023-05-19T22:04:33.758Z,2.40
2023-05-19T22:07:00.532Z,2.78
2023-05-19T22:09:27.112Z,2.47
2023-05-19T22:11:53.587Z,2.45
2023-05-19T22:14:20.013Z,2.33
2023-05-19T22:16:47.578Z,2.50
2023-05-19T22:19:14.884Z,2.60
2023-05-19T22:21:41.315Z,2.53
2023-05-19T22:24:07.964Z,2.85
2023-05-19T22:26:35.731Z,2.65
2023-05-19T22:29:04.748Z,2.55
2023-05-19T22:33:57.814Z,2.60
2023-05-19T22:36:24.441Z,2.53
2023-05-19T22:38:50.977Z,2.80
2023-05-19T22:41:17.502Z,2.40
2023-05-19T22:43:44.405Z,2.75
2023-05-19T22:46:11.318Z,2.13
2023-05-19T22:48:37.942Z,2.60
2023-05-19T22:51:04.752Z,2.42
2023-05-19T22:53:31.232Z,2.53
2023-05-19T22:55:57.702Z,2.40
2023-05-19T22:58:24.136Z,2.38
2023-05-19T23:00:50.779Z,2.60
2023-05-19T23:03:18.232Z,2.78
2023-05-19T23:05:44.754Z,2.67
2023-05-19T23:08:11.296Z,2.65
2023-05-19T23:10:38.238Z,2.15
2023-05-19T23:13:04.831Z,2.45
2023-05-19T23:15:31.482Z,2.83
2023-05-19T23:17:58.423Z,2.70
2023-05-19T23:20:27.941Z,2.50
2023-05-19T23:22:54.552Z,2.10
2023-05-19T23:25:21.088Z,2.60
2023-05-19T23:27:47.796Z,3.33
2023-05-19T23:30:14.264Z,2.50
2023-05-19T23:32:41.071Z,2.70
2023-05-19T23:35:16.771Z,2.58
2023-05-19T23:37:43.440Z,2.25
2023-05-19T23:40:10.386Z,2.75
2023-05-19T23:42:37.071Z,2.60
2023-05-19T23:45:04.381Z,2.65
2023-05-19T23:47:31.496Z,2.95
2023-05-19T23:49:58.034Z,2.33
2023-05-19T23:52:24.600Z,2.47
2023-05-19T23:54:51.063Z,2.60
2023-05-19T23:57:17.601Z,2.60
2023-05-19T23:59:44.472Z,2.63
